Aviation Digital Data Service (ADDS)

Output produced by METARs form (1351 UTC 23 January 2019)
found at http://www.aviationweather.gov/metar/data/
 
METAR text: WMKD 231300Z VRB02KT 9999 -RA FEW016CB SCT023 BKN280 26/24 Q1013 NOSIG
Conditions at: WMKD (KUANTAN (AFB) , MY) observed 1300 UTC 23 January 2019
Temperature: 26.0°C (79°F)
Dewpoint: 24.0°C (75°F) [RH = 89%]
Pressure (altimeter): 29.91 inches Hg (1013.0 mb)
Winds: variable direction winds at 2 MPH (2 knots; 1.0 m/s)
Visibility: 6 or more miles (10+ km)
Ceiling: 28000 feet AGL
Clouds: few clouds at 1600 feet AGL
scattered clouds at 2300 feet AGL
broken clouds at 28000 feet AGL
Weather: -RA  (light rain)

METAR text: WMKD 231200Z VRB05KT 9999 -RA FEW016CB SCT024 BKN280 27/24 Q1012 NOSIG
Conditions at: WMKD (KUANTAN (AFB) , MY) observed 1200 UTC 23 January 2019
Temperature: 27.0°C (81°F)
Dewpoint: 24.0°C (75°F) [RH = 84%]
Pressure (altimeter): 29.88 inches Hg (1012.0 mb)
Winds: variable direction winds at 6 MPH (5 knots; 2.6 m/s)
Visibility: 6 or more miles (10+ km)
Ceiling: 28000 feet AGL
Clouds: few clouds at 1600 feet AGL
scattered clouds at 2400 feet AGL
broken clouds at 28000 feet AGL
Weather: -RA  (light rain)

METAR text: WMKD 231100Z VRB04KT 9999 FEW017CB SCT160 BKN280 28/25 Q1011 NOSIG
Conditions at: WMKD (KUANTAN (AFB) , MY) observed 1100 UTC 23 January 2019
Temperature: 28.0°C (82°F)
Dewpoint: 25.0°C (77°F) [RH = 84%]
Pressure (altimeter): 29.85 inches Hg (1011.0 mb)
Winds: variable direction winds at 5 MPH (4 knots; 2.1 m/s)
Visibility: 6 or more miles (10+ km)
Ceiling: 28000 feet AGL
Clouds: few clouds at 1700 feet AGL
scattered clouds at 16000 feet AGL
broken clouds at 28000 feet AGL
Weather: no significant weather observed at this time

METAR text: WMKD 231000Z 02004KT 340V110 9999 FEW017CB SCT160 BKN280 28/25 Q1011 NOSIG
Conditions at: WMKD (KUANTAN (AFB) , MY) observed 1000 UTC 23 January 2019
Temperature: 28.0°C (82°F)
Dewpoint: 25.0°C (77°F) [RH = 84%]
Pressure (altimeter): 29.85 inches Hg (1011.0 mb)
Winds: from the NNE (20 degrees) at 5 MPH (4 knots; 2.1 m/s)
Visibility: 6 or more miles (10+ km)
Ceiling: 28000 feet AGL
Clouds: few clouds at 1700 feet AGL
scattered clouds at 16000 feet AGL
broken clouds at 28000 feet AGL
Weather: no significant weather observed at this time

METAR text: WMKD 230900Z VRB08KT 9999 FEW017CB SCT019 BKN280 29/26 Q1011 NOSIG
Conditions at: WMKD (KUANTAN (AFB) , MY) observed 0900 UTC 23 January 2019
Temperature: 29.0°C (84°F)
Dewpoint: 26.0°C (79°F) [RH = 84%]
Pressure (altimeter): 29.85 inches Hg (1011.0 mb)
Winds: variable direction winds at 9 MPH (8 knots; 4.1 m/s)
Visibility: 6 or more miles (10+ km)
Ceiling: 28000 feet AGL
Clouds: few clouds at 1700 feet AGL
scattered clouds at 1900 feet AGL
broken clouds at 28000 feet AGL
Weather: no significant weather observed at this time

METAR text: WMKD 230800Z 05006KT 320V110 9999 FEW017CB SCT019 BKN280 31/26 Q1010 NOSIG
Conditions at: WMKD (KUANTAN (AFB) , MY) observed 0800 UTC 23 January 2019
Temperature: 31.0°C (88°F)
Dewpoint: 26.0°C (79°F) [RH = 75%]
Pressure (altimeter): 29.82 inches Hg (1010.0 mb)
Winds: from the NE (50 degrees) at 7 MPH (6 knots; 3.1 m/s)
Visibility: 6 or more miles (10+ km)
Ceiling: 28000 feet AGL
Clouds: few clouds at 1700 feet AGL
scattered clouds at 1900 feet AGL
broken clouds at 28000 feet AGL
Weather: no significant weather observed at this time

METAR text: WMKD 230700Z VRB08KT 9999 FEW017CB SCT018 BKN280 31/26 Q1011 NOSIG
Conditions at: WMKD (KUANTAN (AFB) , MY) observed 0700 UTC 23 January 2019
Temperature: 31.0°C (88°F)
Dewpoint: 26.0°C (79°F) [RH = 75%]
Pressure (altimeter): 29.85 inches Hg (1011.0 mb)
Winds: variable direction winds at 9 MPH (8 knots; 4.1 m/s)
Visibility: 6 or more miles (10+ km)
Ceiling: 28000 feet AGL
Clouds: few clouds at 1700 feet AGL
scattered clouds at 1800 feet AGL
broken clouds at 28000 feet AGL
Weather: no significant weather observed at this time

METAR text: WMKD 230600Z 04008KT 350V110 9999 SCT018 SCT160 BKN280 31/26 Q1012 NOSIG
Conditions at: WMKD (KUANTAN (AFB) , MY) observed 0600 UTC 23 January 2019
Temperature: 31.0°C (88°F)
Dewpoint: 26.0°C (79°F) [RH = 75%]
Pressure (altimeter): 29.88 inches Hg (1012.0 mb)
Winds: from the NE (40 degrees) at 9 MPH (8 knots; 4.1 m/s)
Visibility: 6 or more miles (10+ km)
Ceiling: 28000 feet AGL
Clouds: scattered clouds at 1800 feet AGL
scattered clouds at 16000 feet AGL
broken clouds at 28000 feet AGL
Weather: no significant weather observed at this time

METAR text: WMKD 230500Z 35003KT 270V080 9999 FEW017CB SCT019 BKN280 28/25 Q1013 NOSIG
Conditions at: WMKD (KUANTAN (AFB) , MY) observed 0500 UTC 23 January 2019
Temperature: 28.0°C (82°F)
Dewpoint: 25.0°C (77°F) [RH = 84%]
Pressure (altimeter): 29.91 inches Hg (1013.0 mb)
Winds: from the N (350 degrees) at 3 MPH (3 knots; 1.5 m/s)
Visibility: 6 or more miles (10+ km)
Ceiling: 28000 feet AGL
Clouds: few clouds at 1700 feet AGL
scattered clouds at 1900 feet AGL
broken clouds at 28000 feet AGL
Weather: no significant weather observed at this time

METAR text: WMKD 230400Z VRB09KT 9999 FEW017CB SCT018 BKN280 29/25 Q1013 NOSIG
Conditions at: WMKD (KUANTAN (AFB) , MY) observed 0400 UTC 23 January 2019
Temperature: 29.0°C (84°F)
Dewpoint: 25.0°C (77°F) [RH = 79%]
Pressure (altimeter): 29.91 inches Hg (1013.0 mb)
Winds: variable direction winds at 10 MPH (9 knots; 4.6 m/s)
Visibility: 6 or more miles (10+ km)
Ceiling: 28000 feet AGL
Clouds: few clouds at 1700 feet AGL
scattered clouds at 1800 feet AGL
broken clouds at 28000 feet AGL
Weather: no significant weather observed at this time

METAR text: WMKD 230300Z 36006KT 280V080 9999 FEW017CB SCT018 BKN280 28/25 Q1014 NOSIG
Conditions at: WMKD (KUANTAN (AFB) , MY) observed 0300 UTC 23 January 2019
Temperature: 28.0°C (82°F)
Dewpoint: 25.0°C (77°F) [RH = 84%]
Pressure (altimeter): 29.94 inches Hg (1014.0 mb)
Winds: from the N (360 degrees) at 7 MPH (6 knots; 3.1 m/s)
Visibility: 6 or more miles (10+ km)
Ceiling: 28000 feet AGL
Clouds: few clouds at 1700 feet AGL
scattered clouds at 1800 feet AGL
broken clouds at 28000 feet AGL
Weather: no significant weather observed at this time

METAR text: WMKD 230200Z 33006KT 290V030 9999 FEW017CB SCT160 BKN280 27/24 Q1014 NOSIG
Conditions at: WMKD (KUANTAN (AFB) , MY) observed 0200 UTC 23 January 2019
Temperature: 27.0°C (81°F)
Dewpoint: 24.0°C (75°F) [RH = 84%]
Pressure (altimeter): 29.94 inches Hg (1014.0 mb)
Winds: from the NNW (330 degrees) at 7 MPH (6 knots; 3.1 m/s)
Visibility: 6 or more miles (10+ km)
Ceiling: 28000 feet AGL
Clouds: few clouds at 1700 feet AGL
scattered clouds at 16000 feet AGL
broken clouds at 28000 feet AGL
Weather: no significant weather observed at this time

METAR text: WMKD 230100Z 33007KT 300V020 9999 FEW017CB SCT160 BKN280 26/24 Q1013 NOSIG
Conditions at: WMKD (KUANTAN (AFB) , MY) observed 0100 UTC 23 January 2019
Temperature: 26.0°C (79°F)
Dewpoint: 24.0°C (75°F) [RH = 89%]
Pressure (altimeter): 29.91 inches Hg (1013.0 mb)
Winds: from the NNW (330 degrees) at 8 MPH (7 knots; 3.6 m/s)
Visibility: 6 or more miles (10+ km)
Ceiling: 28000 feet AGL
Clouds: few clouds at 1700 feet AGL
scattered clouds at 16000 feet AGL
broken clouds at 28000 feet AGL
Weather: no significant weather observed at this time

METAR text: WMKD 230000Z VRB02KT 9999 FEW017CB SCT160 BKN280 24/22 Q1012 NOSIG
Conditions at: WMKD (KUANTAN (AFB) , MY) observed 0000 UTC 23 January 2019
Temperature: 24.0°C (75°F)
Dewpoint: 22.0°C (72°F) [RH = 89%]
Pressure (altimeter): 29.88 inches Hg (1012.0 mb)
Winds: variable direction winds at 2 MPH (2 knots; 1.0 m/s)
Visibility: 6 or more miles (10+ km)
Ceiling: 28000 feet AGL
Clouds: few clouds at 1700 feet AGL
scattered clouds at 16000 feet AGL
broken clouds at 28000 feet AGL
Weather: no significant weather observed at this time

METAR text: WMKD 222300Z 35003KT 310V020 9999 FEW024 BKN280 24/22 Q1012 NOSIG
Conditions at: WMKD (KUANTAN (AFB) , MY) observed 2300 UTC 22 January 2019
Temperature: 24.0°C (75°F)
Dewpoint: 22.0°C (72°F) [RH = 89%]
Pressure (altimeter): 29.88 inches Hg (1012.0 mb)
Winds: from the N (350 degrees) at 3 MPH (3 knots; 1.5 m/s)
Visibility: 6 or more miles (10+ km)
Ceiling: 28000 feet AGL
Clouds: few clouds at 2400 feet AGL
broken clouds at 28000 feet AGL
Weather: no significant weather observed at this time

METAR text: WMKD 222200Z 33004KT 300V360 9999 FEW024 SCT160 BKN280 24/22 Q1012 NOSIG
Conditions at: WMKD (KUANTAN (AFB) , MY) observed 2200 UTC 22 January 2019
Temperature: 24.0°C (75°F)
Dewpoint: 22.0°C (72°F) [RH = 89%]
Pressure (altimeter): 29.88 inches Hg (1012.0 mb)
Winds: from the NNW (330 degrees) at 5 MPH (4 knots; 2.1 m/s)
Visibility: 6 or more miles (10+ km)
Ceiling: 28000 feet AGL
Clouds: few clouds at 2400 feet AGL
scattered clouds at 16000 feet AGL
broken clouds at 28000 feet AGL
Weather: no significant weather observed at this time

METAR text: WMKD 222100Z 33003KT 310V010 9999 FEW024 SCT160 BKN280 23/22 Q1011 NOSIG
Conditions at: WMKD (KUANTAN (AFB) , MY) observed 2100 UTC 22 January 2019
Temperature: 23.0°C (73°F)
Dewpoint: 22.0°C (72°F) [RH = 94%]
Pressure (altimeter): 29.85 inches Hg (1011.0 mb)
Winds: from the NNW (330 degrees) at 3 MPH (3 knots; 1.5 m/s)
Visibility: 6 or more miles (10+ km)
Ceiling: 28000 feet AGL
Clouds: few clouds at 2400 feet AGL
scattered clouds at 16000 feet AGL
broken clouds at 28000 feet AGL
Weather: no significant weather observed at this time

METAR text: WMKD 222000Z VRB03KT 9999 FEW024 BKN280 23/22 Q1012 NOSIG
Conditions at: WMKD (KUANTAN (AFB) , MY) observed 2000 UTC 22 January 2019
Temperature: 23.0°C (73°F)
Dewpoint: 22.0°C (72°F) [RH = 94%]
Pressure (altimeter): 29.88 inches Hg (1012.0 mb)
Winds: variable direction winds at 3 MPH (3 knots; 1.5 m/s)
Visibility: 6 or more miles (10+ km)
Ceiling: 28000 feet AGL
Clouds: few clouds at 2400 feet AGL
broken clouds at 28000 feet AGL
Weather: no significant weather observed at this time

METAR text: WMKD 221900Z 34004KT 300V030 9999 FEW024 BKN280 23/23 Q1012 NOSIG
Conditions at: WMKD (KUANTAN (AFB) , MY) observed 1900 UTC 22 January 2019
Temperature: 23.0°C (73°F)
Dewpoint: 23.0°C (73°F) [RH = 100%]
Pressure (altimeter): 29.88 inches Hg (1012.0 mb)
Winds: from the NNW (340 degrees) at 5 MPH (4 knots; 2.1 m/s)
Visibility: 6 or more miles (10+ km)
Ceiling: 28000 feet AGL
Clouds: few clouds at 2400 feet AGL
broken clouds at 28000 feet AGL
Weather: no significant weather observed at this time

METAR text: WMKD 221800Z 34003KT 300V030 9999 FEW024 BKN280 24/23 Q1013 NOSIG
Conditions at: WMKD (KUANTAN (AFB) , MY) observed 1800 UTC 22 January 2019
Temperature: 24.0°C (75°F)
Dewpoint: 23.0°C (73°F) [RH = 94%]
Pressure (altimeter): 29.91 inches Hg (1013.0 mb)
Winds: from the NNW (340 degrees) at 3 MPH (3 knots; 1.5 m/s)
Visibility: 6 or more miles (10+ km)
Ceiling: 28000 feet AGL
Clouds: few clouds at 2400 feet AGL
broken clouds at 28000 feet AGL
Weather: no significant weather observed at this time

METAR text: WMKD 221700Z 35004KT 300V050 9999 FEW024 BKN280 25/23 Q1013 NOSIG
Conditions at: WMKD (KUANTAN (AFB) , MY) observed 1700 UTC 22 January 2019
Temperature: 25.0°C (77°F)
Dewpoint: 23.0°C (73°F) [RH = 89%]
Pressure (altimeter): 29.91 inches Hg (1013.0 mb)
Winds: from the N (350 degrees) at 5 MPH (4 knots; 2.1 m/s)
Visibility: 6 or more miles (10+ km)
Ceiling: 28000 feet AGL
Clouds: few clouds at 2400 feet AGL
broken clouds at 28000 feet AGL
Weather: no significant weather observed at this time

METAR text: WMKD 221600Z 34006KT 300V020 9999 FEW024 BKN280 25/23 Q1014 NOSIG
Conditions at: WMKD (KUANTAN (AFB) , MY) observed 1600 UTC 22 January 2019
Temperature: 25.0°C (77°F)
Dewpoint: 23.0°C (73°F) [RH = 89%]
Pressure (altimeter): 29.94 inches Hg (1014.0 mb)
Winds: from the NNW (340 degrees) at 7 MPH (6 knots; 3.1 m/s)
Visibility: 6 or more miles (10+ km)
Ceiling: 28000 feet AGL
Clouds: few clouds at 2400 feet AGL
broken clouds at 28000 feet AGL
Weather: no significant weather observed at this time

METAR text: WMKD 221500Z 34005KT 290V030 9999 FEW024 BKN280 25/23 Q1014 NOSIG
Conditions at: WMKD (KUANTAN (AFB) , MY) observed 1500 UTC 22 January 2019
Temperature: 25.0°C (77°F)
Dewpoint: 23.0°C (73°F) [RH = 89%]
Pressure (altimeter): 29.94 inches Hg (1014.0 mb)
Winds: from the NNW (340 degrees) at 6 MPH (5 knots; 2.6 m/s)
Visibility: 6 or more miles (10+ km)
Ceiling: 28000 feet AGL
Clouds: few clouds at 2400 feet AGL
broken clouds at 28000 feet AGL
Weather: no significant weather observed at this time

METAR text: WMKD 221400Z 34004KT 300V030 9999 FEW024 BKN280 25/24 Q1014 NOSIG
Conditions at: WMKD (KUANTAN (AFB) , MY) observed 1400 UTC 22 January 2019
Temperature: 25.0°C (77°F)
Dewpoint: 24.0°C (75°F) [RH = 94%]
Pressure (altimeter): 29.94 inches Hg (1014.0 mb)
Winds: from the NNW (340 degrees) at 5 MPH (4 knots; 2.1 m/s)
Visibility: 6 or more miles (10+ km)
Ceiling: 28000 feet AGL
Clouds: few clouds at 2400 feet AGL
broken clouds at 28000 feet AGL
Weather: no significant weather observed at this time

METAR text: WMKD 221300Z 35003KT 300V040 9999 FEW024 BKN280 26/24 Q1013 NOSIG
Conditions at: WMKD (KUANTAN (AFB) , MY) observed 1300 UTC 22 January 2019
Temperature: 26.0°C (79°F)
Dewpoint: 24.0°C (75°F) [RH = 89%]
Pressure (altimeter): 29.91 inches Hg (1013.0 mb)
Winds: from the N (350 degrees) at 3 MPH (3 knots; 1.5 m/s)
Visibility: 6 or more miles (10+ km)
Ceiling: 28000 feet AGL
Clouds: few clouds at 2400 feet AGL
broken clouds at 28000 feet AGL
Weather: no significant weather observed at this time

METAR text: WMKD 221200Z VRB04KT 9999 FEW024 BKN280 27/25 Q1012 NOSIG
Conditions at: WMKD (KUANTAN (AFB) , MY) observed 1200 UTC 22 January 2019
Temperature: 27.0°C (81°F)
Dewpoint: 25.0°C (77°F) [RH = 89%]
Pressure (altimeter): 29.88 inches Hg (1012.0 mb)
Winds: variable direction winds at 5 MPH (4 knots; 2.1 m/s)
Visibility: 6 or more miles (10+ km)
Ceiling: 28000 feet AGL
Clouds: few clouds at 2400 feet AGL
broken clouds at 28000 feet AGL
Weather: no significant weather observed at this time

METAR text: WMKD 221100Z 03006KT 340V110 9999 FEW022 SCT160 BKN280 28/25 Q1012 NOSIG
Conditions at: WMKD (KUANTAN (AFB) , MY) observed 1100 UTC 22 January 2019
Temperature: 28.0°C (82°F)
Dewpoint: 25.0°C (77°F) [RH = 84%]
Pressure (altimeter): 29.88 inches Hg (1012.0 mb)
Winds: from the NNE (30 degrees) at 7 MPH (6 knots; 3.1 m/s)
Visibility: 6 or more miles (10+ km)
Ceiling: 28000 feet AGL
Clouds: few clouds at 2200 feet AGL
scattered clouds at 16000 feet AGL
broken clouds at 28000 feet AGL
Weather: no significant weather observed at this time

METAR text: WMKD 221000Z VRB07KT 9999 FEW020 BKN280 28/25 Q1011 NOSIG
Conditions at: WMKD (KUANTAN (AFB) , MY) observed 1000 UTC 22 January 2019
Temperature: 28.0°C (82°F)
Dewpoint: 25.0°C (77°F) [RH = 84%]
Pressure (altimeter): 29.85 inches Hg (1011.0 mb)
Winds: variable direction winds at 8 MPH (7 knots; 3.6 m/s)
Visibility: 6 or more miles (10+ km)
Ceiling: 28000 feet AGL
Clouds: few clouds at 2000 feet AGL
broken clouds at 28000 feet AGL
Weather: no significant weather observed at this time

METAR text: WMKD 220900Z VRB08KT 9999 SCT019 BKN280 30/26 Q1011 NOSIG
Conditions at: WMKD (KUANTAN (AFB) , MY) observed 0900 UTC 22 January 2019
Temperature: 30.0°C (86°F)
Dewpoint: 26.0°C (79°F) [RH = 79%]
Pressure (altimeter): 29.85 inches Hg (1011.0 mb)
Winds: variable direction winds at 9 MPH (8 knots; 4.1 m/s)
Visibility: 6 or more miles (10+ km)
Ceiling: 28000 feet AGL
Clouds: scattered clouds at 1900 feet AGL
broken clouds at 28000 feet AGL
Weather: no significant weather observed at this time

METAR text: WMKD 220800Z 05008KT 310V100 9999 SCT019 BKN280 31/26 Q1011 NOSIG
Conditions at: WMKD (KUANTAN (AFB) , MY) observed 0800 UTC 22 January 2019
Temperature: 31.0°C (88°F)
Dewpoint: 26.0°C (79°F) [RH = 75%]
Pressure (altimeter): 29.85 inches Hg (1011.0 mb)
Winds: from the NE (50 degrees) at 9 MPH (8 knots; 4.1 m/s)
Visibility: 6 or more miles (10+ km)
Ceiling: 28000 feet AGL
Clouds: scattered clouds at 1900 feet AGL
broken clouds at 28000 feet AGL
Weather: no significant weather observed at this time

METAR text: WMKD 220700Z 02006KT 300V110 9999 SCT019 BKN280 31/26 Q1011 NOSIG
Conditions at: WMKD (KUANTAN (AFB) , MY) observed 0700 UTC 22 January 2019
Temperature: 31.0°C (88°F)
Dewpoint: 26.0°C (79°F) [RH = 75%]
Pressure (altimeter): 29.85 inches Hg (1011.0 mb)
Winds: from the NNE (20 degrees) at 7 MPH (6 knots; 3.1 m/s)
Visibility: 6 or more miles (10+ km)
Ceiling: 28000 feet AGL
Clouds: scattered clouds at 1900 feet AGL
broken clouds at 28000 feet AGL
Weather: no significant weather observed at this time

METAR text: WMKD 220600Z 02005KT 320V100 9999 SCT019 BKN280 30/26 Q1012 BECMG -SHRA
Conditions at: WMKD (KUANTAN (AFB) , MY) observed 0600 UTC 22 January 2019
Temperature: 30.0°C (86°F)
Dewpoint: 26.0°C (79°F) [RH = 79%]
Pressure (altimeter): 29.88 inches Hg (1012.0 mb)
Winds: from the NNE (20 degrees) at 6 MPH (5 knots; 2.6 m/s)
Visibility: 6 or more miles (10+ km)
Ceiling: 28000 feet AGL
Clouds: scattered clouds at 1900 feet AGL
broken clouds at 28000 feet AGL
Weather: no significant weather observed at this time

METAR text: WMKD 220500Z VRB05KT 9999 SCT019 BKN280 30/26 Q1013 NOSIG
Conditions at: WMKD (KUANTAN (AFB) , MY) observed 0500 UTC 22 January 2019
Temperature: 30.0°C (86°F)
Dewpoint: 26.0°C (79°F) [RH = 79%]
Pressure (altimeter): 29.91 inches Hg (1013.0 mb)
Winds: variable direction winds at 6 MPH (5 knots; 2.6 m/s)
Visibility: 6 or more miles (10+ km)
Ceiling: 28000 feet AGL
Clouds: scattered clouds at 1900 feet AGL
broken clouds at 28000 feet AGL
Weather: no significant weather observed at this time

METAR text: WMKD 220400Z 36005KT 300V070 9999 FEW020 BKN160 29/25 Q1014 NOSIG
Conditions at: WMKD (KUANTAN (AFB) , MY) observed 0400 UTC 22 January 2019
Temperature: 29.0°C (84°F)
Dewpoint: 25.0°C (77°F) [RH = 79%]
Pressure (altimeter): 29.94 inches Hg (1014.0 mb)
Winds: from the N (360 degrees) at 6 MPH (5 knots; 2.6 m/s)
Visibility: 6 or more miles (10+ km)
Ceiling: 16000 feet AGL
Clouds: few clouds at 2000 feet AGL
broken clouds at 16000 feet AGL
Weather: no significant weather observed at this time

METAR text: WMKD 220300Z 33005KT 290V030 9999 FEW020 SCT160 BKN280 28/24 Q1014 NOSIG
Conditions at: WMKD (KUANTAN (AFB) , MY) observed 0300 UTC 22 January 2019
Temperature: 28.0°C (82°F)
Dewpoint: 24.0°C (75°F) [RH = 79%]
Pressure (altimeter): 29.94 inches Hg (1014.0 mb)
Winds: from the NNW (330 degrees) at 6 MPH (5 knots; 2.6 m/s)
Visibility: 6 or more miles (10+ km)
Ceiling: 28000 feet AGL
Clouds: few clouds at 2000 feet AGL
scattered clouds at 16000 feet AGL
broken clouds at 28000 feet AGL
Weather: no significant weather observed at this time

METAR text: WMKD 220200Z 35003KT 290V050 9999 FEW022 SCT160 BKN280 26/23 Q1014 NOSIG
Conditions at: WMKD (KUANTAN (AFB) , MY) observed 0200 UTC 22 January 2019
Temperature: 26.0°C (79°F)
Dewpoint: 23.0°C (73°F) [RH = 84%]
Pressure (altimeter): 29.94 inches Hg (1014.0 mb)
Winds: from the N (350 degrees) at 3 MPH (3 knots; 1.5 m/s)
Visibility: 6 or more miles (10+ km)
Ceiling: 28000 feet AGL
Clouds: few clouds at 2200 feet AGL
scattered clouds at 16000 feet AGL
broken clouds at 28000 feet AGL
Weather: no significant weather observed at this time